createdAt,value
2023-01-02T00:01:15.631Z,16.84
2023-01-02T00:03:17.392Z,16.85
2023-01-02T00:05:19.149Z,16.86
2023-01-02T00:07:20.670Z,16.87
2023-01-02T00:09:22.207Z,16.85
2023-01-02T00:11:23.823Z,16.78
2023-01-02T00:13:26.815Z,16.73
2023-01-02T00:15:33.408Z,16.70
2023-01-02T00:17:34.991Z,16.67
2023-01-02T00:19:36.572Z,16.69
2023-01-02T00:21:38.202Z,16.69
2023-01-02T00:23:40.080Z,16.69
2023-01-02T00:25:45.200Z,16.66
2023-01-02T00:27:46.737Z,16.64
2023-01-02T00:29:49.845Z,16.64
2023-01-02T00:31:51.370Z,16.65
2023-01-02T00:33:55.886Z,16.68
2023-01-02T00:35:57.532Z,16.68
2023-01-02T00:37:59.086Z,16.71
2023-01-02T00:40:00.749Z,16.71
2023-01-02T00:42:02.337Z,16.70
2023-01-02T00:44:03.900Z,16.68
2023-01-02T00:46:11.506Z,16.68
2023-01-02T00:48:13.693Z,16.68
2023-01-02T00:50:15.408Z,16.68
2023-01-02T00:52:16.983Z,16.68
2023-01-02T00:54:18.579Z,16.71
2023-01-02T00:56:20.183Z,16.71
2023-01-02T00:58:21.710Z,16.74
2023-01-02T01:00:28.937Z,16.73
2023-01-02T01:02:32.153Z,16.70
2023-01-02T01:04:34.392Z,16.69
2023-01-02T01:06:36.088Z,16.65
2023-01-02T01:08:38.984Z,16.65
2023-01-02T01:10:43.651Z,16.64
2023-01-02T01:12:45.209Z,16.64
2023-01-02T01:14:46.817Z,16.67
2023-01-02T01:16:48.394Z,16.69
2023-01-02T01:18:55.393Z,16.70
2023-01-02T01:20:56.938Z,16.71
2023-01-02T01:22:58.555Z,16.67
2023-01-02T01:25:00.260Z,16.69
2023-01-02T01:27:01.859Z,16.69
2023-01-02T01:29:03.681Z,16.66
2023-01-02T01:31:06.911Z,16.64
2023-01-02T01:33:08.418Z,16.64
2023-01-02T01:35:11.382Z,16.62
2023-01-02T01:37:13.227Z,16.61
2023-01-02T01:39:14.911Z,16.61
2023-01-02T01:41:20.754Z,16.62
2023-01-02T01:43:36.035Z,16.64
2023-01-02T01:45:41.461Z,16.63
2023-01-02T01:47:49.711Z,16.63
2023-01-02T01:50:02.814Z,16.64
2023-01-02T01:52:12.427Z,16.63
2023-01-02T01:54:17.052Z,16.63
2023-01-02T01:56:18.948Z,16.62
2023-01-02T01:58:24.040Z,16.57
2023-01-02T02:00:25.586Z,16.52
2023-01-02T02:02:29.636Z,16.54
2023-01-02T02:04:31.509Z,16.52
2023-01-02T02:06:33.114Z,16.49
2023-01-02T02:08:41.230Z,16.47
2023-01-02T02:10:43.204Z,16.46
2023-01-02T02:12:44.740Z,16.46
2023-01-02T02:14:46.309Z,16.43
2023-01-02T02:16:53.672Z,16.40
2023-01-02T02:19:23.703Z,16.42
2023-01-02T02:21:41.169Z,16.34
2023-01-02T02:24:33.083Z,16.37
2023-01-02T02:27:12.436Z,16.31
2023-01-02T02:30:02.375Z,16.28
2023-01-02T02:32:15.426Z,16.32
2023-01-02T02:34:23.129Z,16.34
2023-01-02T02:36:34.678Z,16.40
2023-01-02T02:38:50.655Z,16.39
2023-01-02T02:41:04.238Z,16.39
2023-01-02T02:43:14.176Z,16.36
2023-01-02T02:45:24.187Z,16.41
2023-01-02T02:47:33.581Z,16.39
2023-01-02T02:49:46.855Z,16.40
2023-01-02T02:51:53.163Z,16.44
2023-01-02T02:54:02.043Z,16.46
2023-01-02T02:56:07.533Z,16.48
2023-01-02T02:58:09.760Z,16.49
2023-01-02T03:02:31.672Z,16.47
2023-01-02T03:04:33.395Z,16.50
2023-01-02T03:06:49.175Z,16.49
2023-01-02T03:09:00.327Z,16.45
2023-01-02T03:11:03.527Z,16.38
2023-01-02T03:13:13.130Z,16.41
2023-01-02T03:15:20.407Z,16.40
2023-01-02T03:17:30.947Z,16.37
2023-01-02T03:19:50.018Z,16.33
2023-01-02T03:21:59.088Z,16.30
2023-01-02T03:24:05.620Z,16.29
2023-01-02T03:26:07.592Z,16.30
2023-01-02T03:28:11.982Z,16.36
2023-01-02T03:30:18.065Z,16.35
2023-01-02T03:32:23.461Z,16.35
2023-01-02T03:34:30.604Z,16.39
2023-01-02T03:36:37.252Z,16.40
2023-01-02T03:38:44.005Z,16.36
2023-01-02T03:40:50.127Z,16.38
2023-01-02T03:42:58.181Z,16.37
2023-01-02T03:45:05.778Z,16.42
2023-01-02T03:47:21.168Z,16.46
2023-01-02T03:49:30.041Z,16.45
2023-01-02T03:51:34.647Z,16.44
2023-01-02T03:53:38.777Z,16.50
2023-01-02T03:55:44.933Z,16.50
2023-01-02T03:57:57.659Z,16.47
2023-01-02T04:00:05.081Z,16.45
2023-01-02T04:02:11.828Z,16.44
2023-01-02T04:04:19.534Z,16.41
2023-01-02T04:06:28.164Z,16.41
2023-01-02T04:08:36.052Z,16.40
2023-01-02T04:10:39.051Z,16.35
2023-01-02T04:12:44.070Z,16.33
2023-01-02T04:14:49.556Z,16.33
2023-01-02T04:16:53.730Z,16.33
2023-01-02T04:19:01.499Z,16.34
2023-01-02T04:21:11.338Z,16.32
2023-01-02T04:23:17.716Z,16.34
2023-01-02T04:25:25.125Z,16.33
2023-01-02T04:27:31.675Z,16.33
2023-01-02T04:29:33.390Z,16.32
2023-01-02T04:31:43.690Z,16.35
2023-01-02T04:33:49.146Z,16.36
2023-01-02T04:35:50.687Z,16.35
2023-01-02T04:37:52.392Z,16.39
2023-01-02T04:39:55.611Z,16.36
2023-01-02T04:41:58.573Z,16.39
2023-01-02T04:44:00.555Z,16.39
2023-01-02T04:46:02.142Z,16.39
2023-01-02T04:48:04.195Z,16.39
2023-01-02T04:50:07.135Z,16.38
2023-01-02T04:52:08.809Z,16.41
2023-01-02T04:54:11.799Z,16.42
2023-01-02T04:56:13.327Z,16.40
2023-01-02T04:58:16.249Z,16.42
2023-01-02T05:00:18.056Z,16.40
2023-01-02T05:02:19.908Z,16.38
2023-01-02T05:04:21.517Z,16.40
2023-01-02T05:06:23.033Z,16.41
2023-01-02T05:08:26.551Z,16.45
2023-01-02T05:10:28.153Z,16.46
2023-01-02T05:12:32.977Z,16.44
2023-01-02T05:14:35.984Z,16.46
2023-01-02T05:16:37.593Z,16.41
2023-01-02T05:18:39.412Z,16.40
2023-01-02T05:20:40.973Z,16.35
2023-01-02T05:22:44.151Z,16.37
2023-01-02T05:24:45.814Z,16.36
2023-01-02T05:26:47.403Z,16.38
2023-01-02T05:28:49.413Z,16.38
2023-01-02T05:30:52.454Z,16.35
2023-01-02T05:32:54.202Z,16.35
2023-01-02T05:34:55.817Z,16.37
2023-01-02T05:36:57.602Z,16.39
2023-01-02T05:38:59.178Z,16.42
2023-01-02T05:41:02.444Z,16.42
2023-01-02T05:43:03.964Z,16.44
2023-01-02T05:45:06.734Z,16.48
2023-01-02T05:47:12.170Z,16.50
2023-01-02T05:49:17.816Z,16.50
2023-01-02T05:51:19.355Z,16.48
2023-01-02T05:53:20.961Z,16.48
2023-01-02T05:55:22.573Z,16.47
2023-01-02T05:57:24.102Z,16.47
2023-01-02T05:59:25.671Z,16.39
2023-01-02T06:01:29.415Z,16.42
2023-01-02T06:03:32.349Z,16.41
2023-01-02T06:05:35.135Z,16.46
2023-01-02T06:07:36.679Z,16.42
2023-01-02T06:09:38.218Z,16.40
2023-01-02T06:11:40.014Z,16.36
2023-01-02T06:13:44.326Z,16.40
2023-01-02T06:15:46.051Z,16.37
2023-01-02T06:17:47.627Z,16.37
2023-01-02T06:19:54.175Z,16.35
2023-01-02T06:21:55.915Z,16.29
2023-01-02T06:23:58.384Z,16.30
2023-01-02T06:26:03.185Z,16.30
2023-01-02T06:28:05.090Z,16.41
2023-01-02T06:30:08.173Z,16.39
2023-01-02T06:32:09.784Z,16.36
2023-01-02T06:34:11.380Z,16.37
2023-01-02T06:36:16.829Z,16.35
2023-01-02T06:38:18.494Z,16.36
2023-01-02T06:40:20.039Z,16.37
2023-01-02T06:42:21.608Z,16.41
2023-01-02T06:44:23.182Z,16.40
2023-01-02T06:46:24.735Z,16.52
2023-01-02T06:48:26.773Z,16.53
2023-01-02T06:50:34.604Z,16.46
2023-01-02T06:52:37.952Z,16.46
2023-01-02T06:54:39.531Z,16.40
2023-01-02T06:56:41.055Z,16.36
2023-01-02T06:58:42.767Z,16.34
2023-01-02T07:00:44.461Z,16.41
2023-01-02T07:02:46.181Z,16.43
2023-01-02T07:04:47.800Z,16.39
2023-01-02T07:06:49.635Z,16.39
2023-01-02T07:08:52.516Z,16.36
2023-01-02T07:10:54.114Z,16.38
2023-01-02T07:12:55.709Z,16.39
2023-01-02T07:14:57.294Z,16.37
2023-01-02T07:16:58.890Z,16.33
2023-01-02T07:19:00.631Z,16.32
2023-01-02T07:21:02.247Z,16.41
2023-01-02T07:23:03.906Z,16.43
2023-01-02T07:25:08.126Z,16.43
2023-01-02T07:27:09.685Z,16.41
2023-01-02T07:29:11.389Z,16.38
2023-01-02T07:31:15.374Z,16.37
2023-01-02T07:33:17.813Z,16.38
2023-01-02T07:35:19.419Z,16.38
2023-01-02T07:37:21.003Z,16.37
2023-01-02T07:39:22.826Z,16.41
2023-01-02T07:41:26.378Z,16.44
2023-01-02T07:43:27.926Z,16.47
2023-01-02T07:45:29.609Z,16.48
2023-01-02T07:47:31.988Z,16.51
2023-01-02T07:49:33.621Z,16.50
2023-01-02T07:51:38.276Z,16.54
2023-01-02T07:53:40.077Z,16.55
2023-01-02T07:55:41.637Z,16.53
2023-01-02T07:57:46.103Z,16.54
2023-01-02T07:59:47.741Z,16.55
2023-01-02T08:01:49.538Z,16.53
2023-01-02T08:03:51.381Z,16.54
2023-01-02T08:05:52.987Z,16.52
2023-01-02T08:07:57.434Z,16.50
2023-01-02T08:09:59.007Z,16.48
2023-01-02T08:12:01.132Z,16.49
2023-01-02T08:14:04.366Z,16.52
2023-01-02T08:16:08.348Z,16.52
2023-01-02T08:18:09.899Z,16.56
2023-01-02T08:20:11.733Z,16.58
2023-01-02T08:22:13.401Z,16.62
2023-01-02T08:24:15.001Z,16.62
2023-01-02T08:26:16.733Z,16.62
2023-01-02T08:28:18.256Z,16.62
2023-01-02T08:30:21.317Z,16.65
2023-01-02T08:32:22.980Z,16.62
2023-01-02T08:34:24.742Z,16.62
2023-01-02T08:36:26.377Z,16.65
2023-01-02T08:38:27.956Z,16.64
2023-01-02T08:40:30.235Z,16.63
2023-01-02T08:42:31.956Z,16.62
2023-01-02T08:44:33.953Z,16.61
2023-01-02T08:46:42.169Z,16.59
2023-01-02T08:48:44.508Z,16.61
2023-01-02T08:50:46.186Z,16.63
2023-01-02T08:52:47.797Z,16.63
2023-01-02T08:54:49.371Z,16.59
2023-01-02T08:56:50.919Z,16.56
2023-01-02T08:58:54.077Z,16.55
2023-01-02T09:00:55.617Z,16.54
2023-01-02T09:02:58.761Z,16.54
2023-01-02T09:05:00.432Z,16.52
2023-01-02T09:07:02.033Z,16.56
2023-01-02T09:09:11.026Z,16.55
2023-01-02T09:11:15.436Z,16.53
2023-01-02T09:13:17.001Z,16.57
2023-01-02T09:15:18.697Z,16.53
2023-01-02T09:17:20.276Z,16.51
2023-01-02T09:19:23.405Z,16.50
2023-01-02T09:21:25.196Z,16.48
2023-01-02T09:23:27.504Z,16.52
2023-01-02T09:25:29.076Z,16.56
2023-01-02T09:27:30.732Z,16.58
2023-01-02T09:29:32.332Z,16.60
2023-01-02T09:31:33.970Z,16.61
2023-01-02T09:33:35.557Z,16.66
2023-01-02T09:35:38.494Z,16.68
2023-01-02T09:37:40.089Z,16.70
2023-01-02T09:39:41.792Z,16.73
2023-01-02T09:41:46.417Z,16.78
2023-01-02T09:43:52.438Z,16.80
2023-01-02T09:45:58.624Z,16.85
2023-01-02T09:48:00.528Z,16.87
2023-01-02T09:50:04.118Z,16.88
2023-01-02T09:52:11.919Z,16.88
2023-01-02T09:54:24.115Z,16.89
2023-01-02T09:56:34.088Z,16.92
2023-01-02T09:58:42.390Z,16.92
2023-01-02T10:00:46.776Z,16.87
2023-01-02T10:03:04.355Z,16.88
2023-01-02T10:05:33.427Z,16.90
2023-01-02T10:07:44.447Z,16.91
2023-01-02T10:09:53.341Z,16.88
2023-01-02T10:12:03.905Z,16.87
2023-01-02T10:14:20.316Z,16.92
2023-01-02T10:16:27.555Z,16.94
2023-01-02T10:18:35.834Z,16.93
2023-01-02T10:20:41.625Z,16.96
2023-01-02T10:22:50.183Z,16.89
2023-01-02T10:24:59.334Z,16.96
2023-01-02T10:27:01.947Z,17.03
2023-01-02T10:29:10.532Z,17.06
2023-01-02T10:31:19.552Z,17.10
2023-01-02T10:33:27.968Z,17.13
2023-01-02T10:35:36.868Z,17.18
2023-01-02T10:37:38.599Z,17.27
2023-01-02T10:39:43.791Z,17.33
2023-01-02T10:41:48.688Z,17.36
2023-01-02T10:43:56.114Z,17.42
2023-01-02T10:45:57.843Z,17.53
2023-01-02T10:47:59.465Z,17.54
2023-01-02T10:50:13.047Z,17.64
2023-01-02T10:52:21.289Z,17.70
2023-01-02T10:54:22.848Z,17.70
2023-01-02T10:56:25.916Z,17.76
2023-01-02T10:58:29.460Z,17.81
2023-01-02T11:00:33.695Z,17.88
2023-01-02T11:02:38.224Z,17.94
2023-01-02T11:04:42.722Z,17.91
2023-01-02T11:06:55.476Z,17.97
2023-01-02T11:08:59.294Z,18.00
2023-01-02T11:11:00.921Z,18.03
2023-01-02T11:13:05.010Z,18.12
2023-01-02T11:15:11.681Z,18.19
2023-01-02T11:17:16.188Z,18.21
2023-01-02T11:19:24.056Z,18.25
2023-01-02T11:21:33.028Z,18.31
2023-01-02T11:23:37.104Z,18.33
2023-01-02T11:25:41.354Z,18.31
2023-01-02T11:27:44.830Z,18.31
2023-01-02T11:29:50.397Z,18.27
2023-01-02T11:31:58.250Z,18.22
2023-01-02T11:34:08.912Z,18.15
2023-01-02T11:36:16.527Z,18.08
2023-01-02T11:38:29.558Z,17.98
2023-01-02T11:40:32.546Z,17.94
2023-01-02T11:42:40.219Z,17.97
2023-01-02T11:44:54.653Z,17.96
2023-01-02T11:46:57.797Z,17.96
2023-01-02T11:49:03.563Z,17.93
2023-01-02T11:51:14.462Z,17.93
2023-01-02T11:53:21.555Z,17.94
2023-01-02T11:55:37.575Z,17.94
2023-01-02T11:57:44.669Z,17.92
2023-01-02T11:59:51.489Z,17.96
2023-01-02T12:02:05.361Z,17.96
2023-01-02T12:04:07.287Z,17.96
2023-01-02T12:06:18.946Z,17.98
2023-01-02T12:08:38.044Z,18.01
2023-01-02T12:10:53.941Z,18.02
2023-01-02T12:13:08.926Z,18.00
2023-01-02T12:15:37.697Z,18.00
2023-01-02T12:17:49.221Z,17.98
2023-01-02T12:20:09.209Z,17.99
2023-01-02T12:22:38.787Z,17.88
2023-01-02T12:24:58.573Z,17.84
2023-01-02T12:27:08.234Z,17.79
2023-01-02T12:29:47.094Z,17.76
2023-01-02T12:32:10.198Z,17.80
2023-01-02T12:34:28.890Z,17.75
2023-01-02T12:36:53.331Z,17.69
2023-01-02T12:39:11.350Z,17.70
2023-01-02T12:41:24.004Z,17.69
2023-01-02T12:43:39.417Z,17.63
2023-01-02T12:45:49.071Z,17.61
2023-01-02T12:48:07.940Z,17.57
2023-01-02T12:50:36.812Z,17.53
2023-01-02T12:52:50.116Z,17.49
2023-01-02T12:55:02.218Z,17.45
2023-01-02T12:57:16.983Z,17.47
2023-01-02T12:59:46.228Z,17.39
2023-01-02T13:01:55.006Z,17.32
2023-01-02T13:04:13.771Z,17.21
2023-01-02T13:06:44.024Z,17.16
2023-01-02T13:08:49.449Z,16.99
2023-01-02T13:10:51.826Z,16.89
2023-01-02T13:12:55.899Z,16.86
2023-01-02T13:15:01.136Z,16.87
2023-01-02T13:17:16.569Z,16.91
2023-01-02T13:19:26.101Z,16.81
2023-01-02T13:21:36.643Z,16.83
2023-01-02T13:23:40.492Z,16.85
2023-01-02T13:25:45.913Z,16.84
2023-01-02T13:27:49.578Z,16.87
2023-01-02T13:29:53.502Z,16.85
2023-01-02T13:31:56.654Z,16.88
2023-01-02T13:34:05.765Z,16.89
2023-01-02T13:36:19.187Z,16.94
2023-01-02T13:38:25.360Z,16.95
2023-01-02T13:40:30.210Z,17.00
2023-01-02T13:42:35.288Z,16.95
2023-01-02T13:44:41.904Z,16.95
2023-01-02T13:49:11.119Z,16.92
2023-01-02T13:51:15.635Z,16.95
2023-01-02T13:53:29.209Z,16.98
2023-01-02T13:55:32.581Z,16.99
2023-01-02T13:57:34.208Z,17.03
2023-01-02T13:59:50.718Z,17.02
2023-01-02T14:02:15.276Z,17.02
2023-01-02T14:04:37.538Z,16.96
2023-01-02T14:06:41.081Z,16.89
2023-01-02T14:09:10.632Z,16.97
2023-01-02T14:11:19.764Z,16.94
2023-01-02T14:13:34.403Z,16.96
2023-01-02T14:16:01.661Z,16.92
2023-01-02T14:18:05.259Z,16.90
2023-01-02T14:20:22.076Z,16.93
2023-01-02T14:22:23.945Z,16.89
2023-01-02T14:24:33.373Z,16.90
2023-01-02T14:26:37.030Z,16.87
2023-01-02T14:28:39.840Z,16.88
2023-01-02T14:30:42.446Z,16.88
2023-01-02T14:32:45.565Z,16.91
2023-01-02T14:34:49.855Z,16.89
2023-01-02T14:36:54.515Z,16.94
2023-01-02T14:38:57.099Z,16.92
2023-01-02T14:41:00.008Z,16.92
2023-01-02T14:43:04.305Z,16.94
2023-01-02T14:45:09.465Z,16.84
2023-01-02T14:47:14.660Z,16.82
2023-01-02T14:49:26.605Z,16.77
2023-01-02T14:51:34.600Z,16.76
2023-01-02T14:53:43.035Z,16.87
2023-01-02T14:55:47.442Z,16.85
2023-01-02T14:57:52.490Z,16.81
2023-01-02T14:59:55.960Z,16.85
2023-01-02T15:02:02.913Z,16.83
2023-01-02T15:04:18.221Z,16.81
2023-01-02T15:06:29.931Z,16.79
2023-01-02T15:08:39.733Z,16.85
2023-01-02T15:10:55.183Z,16.88
2023-01-02T15:13:00.178Z,16.84
2023-01-02T15:15:01.796Z,16.79
2023-01-02T15:17:08.224Z,16.78
2023-01-02T15:19:16.537Z,16.77
2023-01-02T15:21:24.541Z,16.76
2023-01-02T15:23:27.120Z,16.77
2023-01-02T15:25:37.176Z,16.68
2023-01-02T15:27:38.859Z,16.65
2023-01-02T15:29:50.203Z,16.70
2023-01-02T15:31:53.771Z,16.81
2023-01-02T15:33:57.273Z,16.79
2023-01-02T15:36:01.889Z,16.84
2023-01-02T15:38:03.555Z,16.76
2023-01-02T15:40:06.133Z,16.72
2023-01-02T15:42:12.356Z,16.71
2023-01-02T15:44:22.195Z,16.59
2023-01-02T15:46:25.307Z,16.61
2023-01-02T15:48:28.210Z,16.71
2023-01-02T15:50:31.697Z,16.72
2023-01-02T15:52:33.438Z,16.70
2023-01-02T15:54:36.184Z,16.75
2023-01-02T15:56:39.901Z,16.73
2023-01-02T15:58:48.342Z,16.71
2023-01-02T16:01:13.341Z,16.67
2023-01-02T16:04:01.141Z,16.62
2023-01-02T16:06:02.489Z,16.62
2023-01-02T16:08:07.704Z,16.63
2023-01-02T16:10:16.862Z,16.61
2023-01-02T16:12:20.868Z,16.61
2023-01-02T16:14:31.913Z,16.58
2023-01-02T16:16:43.936Z,16.48
2023-01-02T16:18:53.383Z,16.40
2023-01-02T16:20:58.461Z,16.34
2023-01-02T16:23:04.224Z,16.39
2023-01-02T16:25:08.734Z,16.43
2023-01-02T16:27:25.096Z,16.42
2023-01-02T16:29:26.995Z,16.42
2023-01-02T16:31:28.675Z,16.37
2023-01-02T16:33:32.110Z,16.33
2023-01-02T16:35:35.149Z,16.38
2023-01-02T16:37:38.138Z,16.44
2023-01-02T16:39:42.489Z,16.47
2023-01-02T16:41:57.578Z,16.48
2023-01-02T16:43:59.310Z,16.51
2023-01-02T16:46:01.204Z,16.48
2023-01-02T16:48:04.105Z,16.47
2023-01-02T16:50:11.331Z,16.44
2023-01-02T16:52:14.365Z,16.44
2023-01-02T16:54:19.328Z,16.45
2023-01-02T16:56:20.915Z,16.45
2023-01-02T16:58:23.449Z,16.45
2023-01-02T17:00:25.172Z,16.44
2023-01-02T17:02:26.853Z,16.44
2023-01-02T17:04:28.487Z,16.45
2023-01-02T17:06:30.172Z,16.45
2023-01-02T17:08:34.079Z,16.41
2023-01-02T17:10:35.832Z,16.44
2023-01-02T17:12:43.422Z,16.44
2023-01-02T17:14:45.292Z,16.45
2023-01-02T17:16:46.981Z,16.45
2023-01-02T17:18:48.702Z,16.43
2023-01-02T17:20:50.470Z,16.42
2023-01-02T17:22:52.137Z,16.42
2023-01-02T17:24:55.061Z,16.38
2023-01-02T17:26:56.824Z,16.37
2023-01-02T17:28:58.394Z,16.34
2023-01-02T17:31:00.020Z,16.33
2023-01-02T17:33:04.132Z,16.30
2023-01-02T17:35:06.773Z,16.26
2023-01-02T17:37:08.403Z,16.21
2023-01-02T17:39:10.053Z,16.18
2023-01-02T17:41:13.308Z,16.16
2023-01-02T17:43:15.008Z,16.10
2023-01-02T17:45:16.820Z,16.04
2023-01-02T17:47:57.381Z,15.99
2023-01-02T17:49:40.179Z,15.92
2023-01-02T17:51:41.808Z,15.88
2023-01-02T17:53:43.377Z,15.92
2023-01-02T17:55:51.084Z,15.92
2023-01-02T17:58:14.109Z,15.93
2023-01-02T18:00:16.421Z,15.92
2023-01-02T18:02:27.384Z,15.85
2023-01-02T18:04:29.159Z,15.89
2023-01-02T18:06:30.985Z,15.90
2023-01-02T18:08:32.680Z,15.93
2023-01-02T18:10:35.830Z,15.96
2023-01-02T18:12:37.880Z,15.94
2023-01-02T18:14:44.515Z,15.91
2023-01-02T18:16:46.990Z,15.90
2023-01-02T18:18:50.037Z,15.95
2023-01-02T18:20:52.832Z,15.98
2023-01-02T18:22:54.385Z,15.95
2023-01-02T18:24:56.777Z,15.85
2023-01-02T18:27:04.996Z,15.79
2023-01-02T18:29:16.273Z,15.81
2023-01-02T18:31:19.513Z,15.81
2023-01-02T18:33:21.209Z,15.82
2023-01-02T18:37:47.371Z,15.88
2023-01-02T18:39:49.961Z,15.88
2023-01-02T18:41:53.604Z,15.84
2023-01-02T18:44:00.509Z,15.69
2023-01-02T18:46:14.527Z,15.73
2023-01-02T18:48:19.289Z,15.70
2023-01-02T18:50:32.143Z,15.72
2023-01-02T18:52:35.312Z,15.69
2023-01-02T18:54:40.304Z,15.73
2023-01-02T18:56:41.968Z,15.68
2023-01-02T18:58:44.664Z,15.70
2023-01-02T19:00:46.675Z,15.69
2023-01-02T19:02:55.635Z,15.71
2023-01-02T19:04:58.929Z,15.71
2023-01-02T19:07:16.337Z,15.70
2023-01-02T19:09:21.364Z,15.63
2023-01-02T19:11:27.410Z,15.49
2023-01-02T19:13:32.976Z,15.49
2023-01-02T19:15:40.964Z,15.50
2023-01-02T19:17:42.602Z,15.38
2023-01-02T19:19:44.608Z,15.33
2023-01-02T19:21:49.120Z,15.37
2023-01-02T19:23:54.512Z,15.37
2023-01-02T19:26:00.335Z,15.41
2023-01-02T19:28:02.239Z,15.39
2023-01-02T19:30:08.238Z,15.41
2023-01-02T19:32:22.060Z,15.38
2023-01-02T19:34:28.578Z,15.31
2023-01-02T19:36:35.033Z,15.26
2023-01-02T19:38:38.214Z,15.20
2023-01-02T19:40:39.810Z,15.13
2023-01-02T19:42:41.607Z,15.05
2023-01-02T19:44:43.262Z,15.10
2023-01-02T19:46:48.137Z,15.15
2023-01-02T19:48:49.696Z,15.15
2023-01-02T19:50:51.464Z,15.19
2023-01-02T19:52:53.518Z,15.12
2023-01-02T19:54:56.732Z,15.13
2023-01-02T19:56:58.403Z,15.15
2023-01-02T19:59:00.243Z,15.13
2023-01-02T20:01:01.969Z,15.20
2023-01-02T20:03:04.158Z,15.21
2023-01-02T20:05:06.343Z,15.20
2023-01-02T20:07:08.268Z,15.16
2023-01-02T20:09:09.905Z,15.18
2023-01-02T20:11:13.108Z,15.17
2023-01-02T20:13:14.668Z,15.20
2023-01-02T20:15:18.949Z,15.14
2023-01-02T20:17:20.992Z,15.10
2023-01-02T20:19:22.692Z,15.07
2023-01-02T20:21:24.298Z,15.06
2023-01-02T20:23:25.887Z,15.01
2023-01-02T20:25:27.544Z,15.07
2023-01-02T20:27:30.542Z,15.05
2023-01-02T20:29:32.712Z,15.03
2023-01-02T20:31:34.362Z,15.07
2023-01-02T20:33:36.031Z,15.13
2023-01-02T20:35:37.681Z,15.14
2023-01-02T20:37:39.340Z,15.20
2023-01-02T20:39:40.950Z,15.11
2023-01-02T20:41:43.120Z,15.08
2023-01-02T20:43:46.078Z,15.03
2023-01-02T20:45:47.731Z,14.99
2023-01-02T20:47:49.581Z,14.94
2023-01-02T20:49:51.298Z,14.91
2023-01-02T20:51:53.034Z,14.92
2023-01-02T20:53:54.674Z,14.81
2023-01-02T20:55:56.278Z,14.81
2023-01-02T20:57:57.919Z,14.79
2023-01-02T21:00:01.014Z,14.79
2023-01-02T21:02:02.766Z,14.84
2023-01-02T21:04:06.924Z,14.86
2023-01-02T21:06:08.660Z,14.91
2023-01-02T21:08:10.497Z,14.91
2023-01-02T21:10:12.296Z,14.83
2023-01-02T21:12:14.223Z,14.80
2023-01-02T21:14:15.936Z,14.81
2023-01-02T21:16:19.081Z,14.84
2023-01-02T21:18:25.281Z,14.84
2023-01-02T21:20:27.839Z,14.85
2023-01-02T21:22:29.433Z,14.88
2023-01-02T21:24:32.108Z,14.85
2023-01-02T21:26:33.733Z,14.85
2023-01-02T21:28:35.628Z,14.84
2023-01-02T21:30:37.534Z,14.83
2023-01-02T21:32:43.003Z,14.81
2023-01-02T21:34:45.032Z,14.76
2023-01-02T21:36:46.889Z,14.78
2023-01-02T21:38:49.735Z,14.73
2023-01-02T21:40:51.388Z,14.69
2023-01-02T21:42:53.300Z,14.60
2023-01-02T21:44:54.915Z,14.59
2023-01-02T21:46:56.573Z,14.56
2023-01-02T21:48:59.688Z,14.52
2023-01-02T21:51:01.343Z,14.58
2023-01-02T21:53:03.020Z,14.63
2023-01-02T21:55:06.694Z,14.57
2023-01-02T21:57:08.870Z,14.54
2023-01-02T21:59:10.455Z,14.50
2023-01-02T22:01:12.236Z,14.50
2023-01-02T22:03:14.142Z,14.48
2023-01-02T22:05:18.146Z,14.50
2023-01-02T22:07:39.327Z,14.57
2023-01-02T22:09:41.377Z,14.59
2023-01-02T22:11:43.419Z,14.68
2023-01-02T22:13:45.009Z,14.63
2023-01-02T22:15:46.663Z,14.66
2023-01-02T22:17:48.339Z,14.75
2023-01-02T22:19:50.050Z,14.74
2023-01-02T22:21:54.060Z,14.75
2023-01-02T22:23:55.714Z,14.69
2023-01-02T22:25:57.379Z,14.68
2023-01-02T22:27:59.283Z,14.73
2023-01-02T22:32:23.975Z,14.63
2023-01-02T22:34:27.881Z,14.58
2023-01-02T22:36:29.823Z,14.57
2023-01-02T22:38:32.826Z,14.60
2023-01-02T22:40:34.477Z,14.64
2023-01-02T22:42:59.584Z,14.64
2023-01-02T22:44:58.552Z,14.49
2023-01-02T22:47:00.492Z,14.42
2023-01-02T22:49:02.222Z,14.46
2023-01-02T22:51:06.702Z,14.40
2023-01-02T22:53:15.401Z,14.39
2023-01-02T22:55:22.283Z,14.29
2023-01-02T22:57:23.903Z,14.26
2023-01-02T22:59:25.528Z,14.23
2023-01-02T23:01:31.770Z,14.14
2023-01-02T23:03:38.248Z,14.17
2023-01-02T23:05:40.665Z,14.17
2023-01-02T23:07:42.487Z,14.15
2023-01-02T23:09:44.328Z,14.23
2023-01-02T23:11:47.367Z,14.19
2023-01-02T23:13:56.023Z,14.20
2023-01-02T23:15:58.274Z,14.19
2023-01-02T23:17:59.948Z,14.10
2023-01-02T23:20:01.524Z,14.17
2023-01-02T23:22:03.104Z,14.23
2023-01-02T23:24:05.866Z,14.20
2023-01-02T23:26:07.933Z,14.27
2023-01-02T23:28:16.585Z,14.38
2023-01-02T23:30:32.444Z,14.40
2023-01-02T23:32:33.994Z,14.23
2023-01-02T23:34:36.091Z,14.21
2023-01-02T23:36:38.428Z,14.24
2023-01-02T23:38:40.059Z,14.31
2023-01-02T23:40:41.684Z,14.34
2023-01-02T23:42:43.263Z,14.23
2023-01-02T23:44:46.165Z,14.13
2023-01-02T23:46:47.970Z,13.97
2023-01-02T23:48:49.520Z,13.97
2023-01-02T23:50:56.471Z,13.91
2023-01-02T23:52:58.073Z,13.90
2023-01-02T23:54:59.588Z,13.80
2023-01-02T23:57:01.197Z,13.80
2023-01-02T23:59:11.683Z,13.78
